Sea Mule — WDB7537 — position and weather

sailwx.info

Track history (hours):
 
Tides and Currents Weather Stations Pressure Air Temp Water Temp Dewpoint Dewpoint Depression Visibility Wind Speed Wind Dir Waves Ship Positions

Sea Mule

Owner: GARBER BROTHERS INC, MORGAN CITY, LA. More information available from US FCC via Universal Licensing System and Coast Guard Vessel Documentation Center.

Last reported at 2018-Feb-17 16:30 UTC. Time now 2018-Feb-19 21:46 UTC.
Position N 29°33' W 090°55'.

Length 15 m.

Type: Tug. MMSI: 366943760.

Date/timePositionNaut miles runAvg speedWind from/ knotsBaromVisibWave heightAir tempDewpointWater temp
2018-Feb-17 16:30N 29°33' W 090°55'4 7.4
2018-Feb-17 16:00N 29°32' W 090°51'4 7.5
2018-Feb-17 15:30N 29°32' W 090°46'3 5.8
2018-Feb-17 15:00N 29°34' W 090°44'2 3.0
2018-Feb-17 14:30N 29°33' W 090°42'1 0.1
2018-Feb-17 05:19N 29°33' W 090°41'1 3.4
2018-Feb-17 05:00N 29°32' W 090°42'4 8.2
2018-Feb-17 04:31N 29°28' W 090°43'4 0.3
2018-Feb-16 17:04N 29°25' W 090°44'1 8.6
2018-Feb-16 16:58N 29°25' W 090°43'4 8.9
2018-Feb-16 16:31N 29°29' W 090°43'4 7.2
2018-Feb-16 16:01N 29°33' W 090°42'  
2018-Feb-11 14:09N 29°33' W 090°41'1 5.9
2018-Feb-11 14:00N 29°33' W 090°42'0 0.8
2018-Feb-11 13:31N 29°32' W 090°42'0 0.1
2018-Feb-11 13:00N 29°32' W 090°42'1 1.6
2018-Feb-11 12:26N 29°33' W 090°41'  
2018-Feb-08 12:30N 29°33' W 090°41'0 0.0
2018-Feb-08 10:30N 29°33' W 090°41'0 0.0
2018-Feb-08 08:00N 29°33' W 090°41'0 0.0
2018-Feb-08 04:00N 29°33' W 090°41'0 0.0
2018-Feb-08 03:00N 29°33' W 090°41'0 0.0
2018-Feb-08 01:30N 29°33' W 090°41'0 0.0
2018-Feb-08 00:58N 29°33' W 090°41'0 0.0
2018-Feb-08 00:30N 29°33' W 090°41'2 3.9
2018-Feb-08 00:00N 29°34' W 090°43'0 0.6
2018-Feb-07 23:30N 29°34' W 090°43'2 4.1
2018-Feb-07 23:00N 29°36' W 090°43'3 5.3
2018-Feb-07 22:30N 29°36' W 090°40'3 6.0
2018-Feb-07 22:00N 29°35' W 090°36'0 0.0
2018-Feb-07 21:31N 29°35' W 090°36'  
Track history (hours):
 
Tides and Currents Weather Stations Pressure Air Temp Water Temp Dewpoint Dewpoint Depression Visibility Wind Speed Wind Dir Waves Ship Positions

Sea Mule

Owner: GARBER BROTHERS INC, MORGAN CITY, LA. More information available from US FCC via Universal Licensing System and Coast Guard Vessel Documentation Center.

Last reported at 2018-Feb-17 16:30 UTC. Time now 2018-Feb-19 21:46 UTC.
Position N 29°33' W 090°55'.

Length 15 m.

Type: Tug. MMSI: 366943760.

Date/timePositionNaut miles runAvg speedWind from/ knotsBaromVisibWave heightAir tempDewpointWater temp
2018-Feb-17 16:30N 29°33' W 090°55'4 7.4
2018-Feb-17 16:00N 29°32' W 090°51'4 7.5
2018-Feb-17 15:30N 29°32' W 090°46'3 5.8
2018-Feb-17 15:00N 29°34' W 090°44'2 3.0
2018-Feb-17 14:30N 29°33' W 090°42'1 0.1
2018-Feb-17 05:19N 29°33' W 090°41'1 3.4
2018-Feb-17 05:00N 29°32' W 090°42'4 8.2
2018-Feb-17 04:31N 29°28' W 090°43'4 0.3
2018-Feb-16 17:04N 29°25' W 090°44'1 8.6
2018-Feb-16 16:58N 29°25' W 090°43'4 8.9
2018-Feb-16 16:31N 29°29' W 090°43'4 7.2
2018-Feb-16 16:01N 29°33' W 090°42'  
2018-Feb-11 14:09N 29°33' W 090°41'1 5.9
2018-Feb-11 14:00N 29°33' W 090°42'0 0.8
2018-Feb-11 13:31N 29°32' W 090°42'0 0.1
2018-Feb-11 13:00N 29°32' W 090°42'1 1.6
2018-Feb-11 12:26N 29°33' W 090°41'  
2018-Feb-08 12:30N 29°33' W 090°41'0 0.0
2018-Feb-08 10:30N 29°33' W 090°41'0 0.0
2018-Feb-08 08:00N 29°33' W 090°41'0 0.0
2018-Feb-08 04:00N 29°33' W 090°41'0 0.0
2018-Feb-08 03:00N 29°33' W 090°41'0 0.0
2018-Feb-08 01:30N 29°33' W 090°41'0 0.0
2018-Feb-08 00:58N 29°33' W 090°41'0 0.0
2018-Feb-08 00:30N 29°33' W 090°41'2 3.9
2018-Feb-08 00:00N 29°34' W 090°43'0 0.6
2018-Feb-07 23:30N 29°34' W 090°43'2 4.1
2018-Feb-07 23:00N 29°36' W 090°43'3 5.3
2018-Feb-07 22:30N 29°36' W 090°40'3 6.0
2018-Feb-07 22:00N 29°35' W 090°36'0 0.0
2018-Feb-07 21:31N 29°35' W 090°36'  

Dump ship's entire track history